Venango Regional Airport
KFKL : now visible

Airfield :











YOU CAN JOIN US ON...

 
LOGIN :

Register | Disclaimer

   EN    FR    IT 

 









Legend :    VFR   Marginal VFR   IFR   Intensive IFR   Very Intensive IFR
Visi :
Ceiling :
>= 8 km
>= 3000ft
5 to 8 km
1000 to 3000 ft
1500m to 5 km
500 to 1000 ft
800 to 1500m
200 to 500 ft
< 800m
< 200 ft
Symbols :   Thunderstorms  Fog  Heavy snow  Heavy precipitations  Wind > 20 kt






- Airport Elevation : 1540 ft


KFKL - Venango Regional

CURRENT METAR :
  • 121756Z AUTO VRB06KT 10SM FEW060 SCT080 BKN090 14/00 A3031 RMK AO2 SLP271 6//// T01440000 10144 20050 58006

EXPIRED METARs :
  • 121656Z AUTO 32009G14KT 10SM BKN065 BKN080 13/M01 A3032 RMK AO2 SLP275 T01281006
  • 121556Z AUTO 34007G14KT 310V020 10SM FEW049 BKN065 13/01 A3033 RMK AO2 SLP277 T01330011

TAF KFKL
Valid from the 12 at 18:00 until the 13 at 18:00 UTC


121720Z 1218/1318 34008G18KT P6SM SCT050
FM130000 00000KT P6SM SKC
FM131700 01008KT P6SM SCT250
KZOB FIR / North America



MET'MAP, your aeronautical weather chart ! - Copyright ORBIFLY December 2007 - Disclaimer

ORBIFLY MET'MAP TEAM :

Programming & Development : Alexandra Zaïnal
Concept & original design : Baudouin d'Aumeries
Assistance for programming : Marc-Olivier Méhu
Technical & hardware support : Manuel Goepfert

Contact : metmap@orbifly.com




SOURCES & CREDITS :

   NOAA       Earth
Advisory